Latest Weather Observations for Scherger

IDQ60801

Issued at 4:32 pm EST Thursday 29 September 2016 (issued every 30 minutes, with the page automatically refreshed every 10 minutes)

About weather observations | Map of weather stations | Latest weather observations for QLD | Other Formats
Station Details ID: 027075 Name: SCHERGER RAAF Lat: -12.62 Lon: 142.09 Height: 39.34 m
Data from the previous 72 hours. | See also: Recent months at Scherger
Date/Time
EST
Temp
°C
App
Temp
°C
Dew
Point
°C
Rel
Hum
%
Delta-T
°C
Wind Press
QNH
hPa
Press
MSL
hPa
Rain since
9am
mm
Dir  Spd
km/h
Gust
km/h
Spd
kts
Gust
kts
29/04:30pm 32.3 34.0 20.9 51 7.7 WNW 13 20 7 11 1006.0 1005.7 0.0
29/04:00pm 33.9 36.4 20.3 45 9.1 WNW 7 22 4 12 1005.9 1005.6 0.0
29/03:30pm 34.8 36.5 16.1 32 11.8 NNE 2 7 1 4 1006.0 1005.7 0.0
29/03:00pm 35.6 36.0 16.4 32 12.3 SSE 9 13 5 7 1006.2 1005.9 0.0
29/02:30pm 35.2 35.9 17.0 34 11.7 SE 9 13 5 7 1006.6 1006.3 0.0
29/02:00pm 35.2 36.4 17.4 34 11.5 E 7 15 4 8 1007.0 1006.7 0.0
29/01:30pm 34.7 35.9 17.4 35 11.1 E 7 13 4 7 1007.4 1007.1 0.0
29/01:00pm 34.2 34.9 17.0 36 11.0 E 9 19 5 10 1007.9 1007.6 0.0
29/12:30pm 33.9 34.5 17.6 38 10.5 E 11 19 6 10 1008.3 1008.0 0.0
29/12:00pm 33.0 32.8 16.8 38 10.3 ESE 13 20 7 11 1008.9 1008.7 0.0
29/11:30am 32.1 33.4 19.4 47 8.3 ENE 11 20 6 11 1009.4 1009.2 0.0
29/11:00am 30.5 31.2 18.9 50 7.5 SE 13 19 7 10 1009.9 1009.7 0.0
29/10:30am 29.8 31.1 19.2 53 6.9 ENE 11 26 6 14 1010.3 1010.1 0.0
29/10:00am 29.1 31.1 20.0 58 6.0 ESE 9 17 5 9 1010.8 1010.6 0.0
29/09:30am 27.7 28.9 20.0 63 5.0 E 13 20 7 11 1011.0 1010.8 0.0
29/09:00am 26.9 28.7 20.3 67 4.3 E 11 19 6 10 1011.4 1011.2 0.0
29/08:30am 26.3 28.7 20.8 71 3.6 ESE 9 17 5 9 1011.6 1011.4 0.0
29/08:00am 25.3 28.3 20.8 76 3.0 SE 6 11 3 6 1011.6 1011.4 0.0
29/07:30am 24.3 28.3 20.6 80 2.4 CALM 0 6 0 3 1011.3 1011.1 0.0
29/07:00am 22.5 26.5 20.6 89 1.2 CALM 0 0 0 0 1011.1 1010.9 0.0
29/06:30am 21.5 25.1 19.8 90 1.1 CALM 0 0 0 0 1010.6 1010.4 0.0
29/06:00am 21.6 25.2 19.7 89 1.2 CALM 0 0 0 0 1010.4 1010.2 0.0
29/05:30am 21.8 25.3 19.5 87 1.5 CALM 0 0 0 0 1010.1 1009.9 0.0
29/05:00am 22.0 25.7 19.9 88 1.3 CALM 0 0 0 0 1009.9 1009.7 0.0
29/04:30am 22.4 26.2 20.1 87 1.5 CALM 0 0 0 0 1009.8 1009.6 0.0
29/04:00am 22.3 25.0 20.2 88 1.4 E 6 11 3 6 1009.9 1009.7 0.0
29/03:30am 21.8 25.2 19.4 86 1.5 CALM 0 0 0 0 1010.1 1009.9 0.0
29/03:00am 22.0 25.4 19.4 85 1.7 CALM 0 0 0 0 1010.4 1010.2 0.0
29/02:30am 22.3 25.7 19.3 83 1.9 CALM 0 0 0 0 1010.5 1010.3 0.0
29/02:00am 22.8 26.3 19.6 82 2.1 CALM 0 7 0 4 1010.7 1010.5 0.0
29/01:30am 23.0 26.5 19.6 81 2.2 CALM 0 0 0 0 1011.1 1010.9 0.0
29/01:00am 23.5 27.0 19.6 79 2.5 CALM 0 0 0 0 1011.5 1011.3 0.0
29/12:30am 23.8 27.5 19.9 79 2.5 CALM 0 0 0 0 1011.7 1011.5 0.0
29/12:00am 24.2 28.1 20.3 79 2.5 CALM 0 0 0 0 1011.8 1011.6 0.0
 
Date/Time
EST
Temp
°C
App
Temp
°C
Dew
Point
°C
Rel
Hum
%
Delta-T
°C
Wind Press
QNH
hPa
Press
MSL
hPa
Rain since
9am
mm
Dir  Spd
km/h
Gust
km/h
Spd
kts
Gust
kts
28/11:30pm 24.8 28.8 20.5 77 2.8 CALM 0 0 0 0 1012.0 1011.8 0.0
28/11:00pm 24.6 29.1 21.5 83 2.1 CALM 0 0 0 0 1012.3 1012.1 0.0
28/10:30pm 25.1 29.8 22.0 83 2.1 CALM 0 0 0 0 1012.1 1011.9 0.0
28/10:00pm 25.4 29.8 22.1 82 2.2 SE 2 6 1 3 1011.9 1011.7 0.0
28/09:30pm 25.9 30.4 22.2 80 2.5 ESE 2 6 1 3 1011.4 1011.2 0.0
28/09:00pm 26.3 31.1 22.2 78 2.8 CALM 0 0 0 0 1011.0 1010.8 0.0
28/08:30pm 26.9 31.8 22.3 76 3.1 CALM 0 0 0 0 1010.5 1010.3 0.0
28/08:00pm 27.3 31.8 22.3 74 3.4 WSW 2 9 1 5 1010.0 1009.8 0.0
28/07:30pm 27.7 30.8 22.2 72 3.7 W 9 13 5 7 1009.3 1009.1 0.0
28/07:00pm 28.3 31.2 21.8 68 4.4 WSW 9 15 5 8 1008.8 1008.5 0.0
28/06:30pm 30.3 33.1 20.5 55 6.5 WSW 6 13 3 7 1008.3 1008.0 0.0
28/06:00pm 32.8 32.4 15.3 34 10.9 NE 11 19 6 10 1007.6 1007.3 0.0
28/05:30pm 33.8 33.8 15.3 33 11.5 E 9 17 5 9 1007.2 1006.9 0.0
28/05:00pm 34.3 33.7 15.7 32 11.7 ENE 13 22 7 12 1007.1 1006.8 0.0
28/04:30pm 34.9 33.4 15.3 31 12.3 E 17 26 9 14 1007.0 1006.7 0.0
28/04:00pm 34.4 33.1 14.8 30 12.2 E 15 22 8 12 1006.9 1006.6 0.0
28/03:30pm 35.4 34.6 15.2 30 12.6 E 13 28 7 15 1007.0 1006.7 0.0
28/03:00pm 35.7 34.6 15.4 29 12.8 NE 15 26 8 14 1007.3 1007.0 0.0
28/02:30pm 35.6 35.1 15.9 31 12.5 ESE 13 28 7 15 1007.5 1007.2 0.0
28/02:00pm 35.3 34.7 15.6 31 12.4 NE 13 28 7 15 1007.9 1007.6 0.0
28/01:30pm 34.9 34.3 15.7 31 12.1 NE 13 28 7 15 1008.4 1008.1 0.0
28/01:00pm 35.4 35.6 17.6 35 11.5 ENE 13 24 7 13 1008.8 1008.5 0.0
28/12:30pm 34.4 33.8 16.7 34 11.3 E 15 30 8 16 1009.5 1009.3 0.0
28/12:00pm 33.7 33.4 18.2 39 10.1 NE 17 32 9 17 1010.1 1009.9 0.0
28/11:30am 32.1 31.6 17.9 42 9.1 E 17 26 9 14 1010.7 1010.5 0.0
28/11:00am 31.6 32.3 18.9 47 8.3 ENE 13 26 7 14 1011.1 1010.9 0.0
28/10:30am 31.0 32.1 19.7 51 7.4 E 13 24 7 13 1011.6 1011.4 0.0
28/10:00am 29.9 30.3 19.0 52 7.1 ENE 15 28 8 15 1011.9 1011.7 0.0
28/09:30am 29.0 29.3 19.6 57 6.1 E 17 26 9 14 1012.3 1012.1 0.0
28/09:00am 27.9 28.7 19.9 61 5.2 ESE 15 24 8 13 1012.5 1012.3 0.0
28/08:30am 27.0 28.4 20.3 66 4.4 SE 13 26 7 14 1012.5 1012.3 0.0
28/08:00am 26.4 28.4 20.7 71 3.8 SSE 11 17 6 9 1012.6 1012.4 0.0
28/07:30am 24.9 27.1 20.4 76 2.9 SSE 9 13 5 7 1012.3 1012.1 0.0
28/07:00am 23.8 26.5 20.7 83 2.0 S 7 11 4 6 1011.9 1011.7 0.0
28/06:30am 23.0 25.5 20.3 85 1.7 S 7 9 4 5 1011.5 1011.3 0.0
28/06:00am 23.4 26.1 20.3 83 2.0 S 6 7 3 4 1011.4 1011.2 0.0
28/05:30am 23.6 26.2 20.5 83 2.0 SSE 7 9 4 5 1011.2 1011.0 0.0
28/05:00am 23.5 27.6 20.8 85 1.8 CALM 0 0 0 0 1011.0 1010.8 0.0
28/04:30am 23.1 27.2 20.8 87 1.5 CALM 0 0 0 0 1010.7 1010.5 0.0
28/04:00am 22.4 26.3 20.3 88 1.4 CALM 0 0 0 0 1010.2 1010.0 0.0
28/03:30am 22.3 26.1 20.2 88 1.4 CALM 0 0 0 0 1010.3 1010.1 0.0
28/03:00am 22.3 25.9 19.8 86 1.6 CALM 0 0 0 0 1010.1 1009.9 0.0
28/02:30am 22.7 26.4 20.0 85 1.7 CALM 0 0 0 0 1010.1 1009.9 0.0
28/02:00am 22.9 25.5 20.1 84 1.8 SSW 6 6 3 3 1010.5 1010.3 0.0
28/01:30am 23.7 26.9 20.4 82 2.1 S 4 6 2 3 1010.8 1010.6 0.0
28/01:00am 23.5 27.2 20.0 81 2.3 CALM 0 0 0 0 1011.0 1010.8 0.0
28/12:30am 24.1 27.2 20.2 79 2.5 SSE 4 6 2 3 1011.2 1011.0 0.0
28/12:00am 24.0 27.7 19.9 78 2.6 CALM 0 0 0 0 1011.4 1011.2 0.0
 
Date/Time
EST
Temp
°C
App
Temp
°C
Dew
Point
°C
Rel
Hum
%
Delta-T
°C
Wind Press
QNH
hPa
Press
MSL
hPa
Rain since
9am
mm
Dir  Spd
km/h
Gust
km/h
Spd
kts
Gust
kts
27/11:30pm 24.8 28.6 20.1 75 3.1 CALM 0 0 0 0 1011.6 1011.4 0.0
27/11:00pm 25.0 28.5 20.3 75 3.1 E 2 6 1 3 1011.7 1011.5 0.0
27/10:30pm 25.3 28.5 20.5 75 3.1 ESE 4 7 2 4 1011.7 1011.5 0.0
27/10:00pm 25.9 29.3 21.6 77 2.9 E 6 7 3 4 1011.5 1011.3 0.0
27/09:30pm 26.3 31.4 22.6 80 2.5 CALM 0 7 0 4 1011.3 1011.1 0.0
27/09:00pm 26.7 31.9 22.8 79 2.6 CALM 0 0 0 0 1011.2 1011.0 0.0
27/08:30pm 27.1 31.2 22.9 78 2.9 SSE 6 7 3 4 1010.6 1010.4 0.0
27/08:00pm 27.4 32.4 23.2 78 2.9 SW 2 11 1 6 1009.9 1009.7 0.0
27/07:30pm 27.7 32.9 22.9 75 3.3 CALM 0 0 0 0 1009.4 1009.2 0.0
27/07:00pm 28.1 32.9 22.8 73 3.6 W 2 11 1 6 1008.9 1008.7 0.0
27/06:30pm 28.6 32.2 22.3 68 4.3 WNW 7 13 4 7 1008.5 1008.2 0.0
27/06:00pm 29.6 32.4 22.3 65 5.0 WNW 11 19 6 10 1008.0 1007.7 0.0
27/05:30pm 30.8 33.0 21.9 59 6.0 NW 13 24 7 13 1007.4 1007.1 0.0
27/05:25pm 31.1 33.7 21.9 58 6.2 NW 11 20 6 11 1007.4 1007.1 0.0
27/05:00pm 36.1 34.8 13.6 26 13.8 ENE 13 24 7 13 1006.9 1006.6 0.0
27/04:30pm 36.8 35.4 13.5 24 14.3 E 13 24 7 13 1006.7 1006.4 0.0
27/04:00pm 37.5 36.3 14.1 24 14.6 ESE 13 26 7 14 1006.5 1006.2 0.0
27/03:30pm 37.4 35.8 12.8 23 15.0 E 13 28 7 15 1006.6 1006.3 0.0
27/03:00pm 37.4 36.6 14.0 24 14.5 E 11 22 6 12 1006.7 1006.4 0.0
27/02:30pm 37.8 36.0 14.4 25 14.6 ENE 17 28 9 15 1007.0 1006.7 0.0
27/02:00pm 37.6 36.7 14.8 25 14.3 E 13 24 7 13 1007.4 1007.1 0.0
27/01:30pm 37.4 36.5 15.8 27 13.7 ENE 15 26 8 14 1007.9 1007.6 0.0
27/01:00pm 36.5 36.5 17.1 31 12.5 ESE 13 26 7 14 1008.6 1008.3 0.0
27/12:30pm 35.2 34.9 17.4 34 11.5 E 15 24 8 13 1009.5 1009.3 0.0
27/12:00pm 34.8 34.9 18.4 38 10.7 E 15 24 8 13 1010.1 1009.9 0.0
27/11:30am 33.8 34.4 18.7 40 9.9 ESE 13 26 7 14 1010.7 1010.5 0.0
27/11:00am 32.1 32.5 19.0 45 8.6 ESE 15 22 8 12 1011.2 1011.0 0.0
27/10:30am 31.5 32.7 19.8 49 7.7 ENE 13 22 7 12 1011.5 1011.3 0.0
27/10:00am 30.0 30.6 20.3 56 6.4 ENE 17 30 9 16 1011.9 1011.7 0.0
27/09:30am 29.4 31.6 20.5 58 5.9 ENE 9 24 5 13 1012.2 1012.0 0.0
27/09:00am 28.3 30.2 21.3 65 4.7 ENE 13 20 7 11 1012.3 1012.1 0.0
27/08:30am 26.8 29.8 21.3 72 3.7 ESE 7 13 4 7 1012.4 1012.2 0.0
27/08:00am 25.7 28.8 21.4 77 2.9 E 7 11 4 6 1012.0 1011.8 0.0
27/07:30am 24.9 28.0 21.4 81 2.3 SE 7 11 4 6 1011.8 1011.6 0.0
27/07:00am 24.0 27.7 21.5 86 1.7 SSE 4 7 2 4 1011.5 1011.3 0.0
27/06:30am 22.8 26.9 20.7 88 1.4 CALM 0 0 0 0 1011.1 1010.9 0.0
27/06:00am 23.3 27.5 21.0 87 1.5 CALM 0 0 0 0 1010.8 1010.6 0.0
27/05:30am 23.7 28.0 21.2 86 1.6 CALM 0 0 0 0 1010.7 1010.5 0.0
27/05:00am 23.6 26.9 21.5 88 1.4 SE 6 9 3 5 1010.2 1010.0 0.0
27/04:30am 23.1 27.3 21.0 88 1.4 CALM 0 0 0 0 1009.8 1009.6 0.0
27/04:00am 23.2 27.4 20.9 87 1.5 CALM 0 0 0 0 1009.9 1009.7 0.0
27/03:30am 23.5 27.8 21.2 87 1.5 CALM 0 0 0 0 1009.8 1009.6 0.0
27/03:00am 23.4 27.6 20.9 86 1.6 CALM 0 0 0 0 1010.0 1009.8 0.0
27/02:30am 23.9 27.6 21.4 86 1.7 SE 4 7 2 4 1010.1 1009.9 0.0
27/02:00am 23.4 27.7 21.1 87 1.5 CALM 0 0 0 0 1010.5 1010.3 0.0
27/01:30am 23.5 27.6 20.8 85 1.8 CALM 0 0 0 0 1010.9 1010.7 0.0
27/01:00am 23.7 27.8 20.8 84 1.9 CALM 0 0 0 0 1011.4 1011.2 0.0
27/12:30am 24.2 28.4 20.9 82 2.2 CALM 0 0 0 0 1011.7 1011.5 0.0
27/12:00am 24.7 29.2 21.6 83 2.1 CALM 0 6 0 3 1011.8 1011.6 0.0
 
Date/Time
EST
Temp
°C
App
Temp
°C
Dew
Point
°C
Rel
Hum
%
Delta-T
°C
Wind Press
QNH
hPa
Press
MSL
hPa
Rain since
9am
mm
Dir  Spd
km/h
Gust
km/h
Spd
kts
Gust
kts
26/11:30pm 25.1 28.7 22.0 83 2.1 ENE 6 7 3 4 1012.0 1011.8 0.0
26/11:00pm 25.5 30.4 22.4 83 2.1 CALM 0 0 0 0 1012.4 1012.2 0.0
26/10:30pm 25.5 30.6 22.6 84 2.0 CALM 0 4 0 2 1012.3 1012.1 0.0
26/10:00pm 25.8 31.0 22.9 84 2.0 CALM 0 6 0 3 1012.1 1011.9 0.0
26/09:30pm 26.1 31.4 23.0 83 2.1 CALM 0 0 0 0 1012.1 1011.9 0.0
26/09:00pm 26.5 31.8 23.0 81 2.4 CALM 0 0 0 0 1011.8 1011.6 0.0
26/08:30pm 26.9 32.1 22.9 79 2.7 CALM 0 0 0 0 1011.3 1011.1 0.0
26/08:00pm 27.5 32.7 22.9 76 3.1 CALM 0 6 0 3 1010.8 1010.6 0.0
26/07:30pm 27.7 32.9 22.9 75 3.3 CALM 0 9 0 5 1010.3 1010.1 0.0
26/07:00pm 28.0 32.0 22.7 73 3.6 WNW 6 13 3 7 1009.8 1009.6 0.0
26/06:30pm 28.8 32.4 22.3 68 4.4 WNW 7 13 4 7 1009.1 1008.9 0.0
26/06:00pm 29.6 32.1 21.8 63 5.3 W 11 20 6 11 1008.4 1008.1 0.0
26/05:30pm 30.5 32.2 21.6 59 6.0 W 15 22 8 12 1008.0 1007.7 0.0
26/05:00pm 31.3 33.5 22.6 60 6.0 WNW 15 24 8 13 1007.4 1007.1 0.0

Other Formats:

Comma delimited format used in spreadsheet applications
http://www.bom.gov.au/fwo/IDQ60801/IDQ60801.94171.axf

JavaScript Object Notation format (JSON) in row-major order
http://www.bom.gov.au/fwo/IDQ60801/IDQ60801.94171.json